createdAt,value
2022-12-24T00:00:40.224Z,99844.38
2022-12-24T00:03:43.293Z,99848.72
2022-12-24T00:06:46.071Z,99847.06
2022-12-24T00:09:48.941Z,99847.84
2022-12-24T00:12:51.582Z,99845.31
2022-12-24T00:15:54.483Z,99847.91
2022-12-24T00:18:57.144Z,99849.66
2022-12-24T00:22:00.111Z,99853.88
2022-12-24T00:25:05.507Z,99854.00
2022-12-24T00:28:08.371Z,99855.75
2022-12-24T00:31:18.172Z,99846.41
2022-12-24T00:34:23.619Z,99837.88
2022-12-24T00:37:26.161Z,99846.41
2022-12-24T00:40:32.038Z,99847.34
2022-12-24T00:43:34.566Z,99861.03
2022-12-24T00:46:41.440Z,99869.50
2022-12-24T00:49:44.372Z,99881.41
2022-12-24T00:52:47.306Z,99901.87
2022-12-24T00:55:49.846Z,99882.22
2022-12-24T00:58:55.617Z,99867.69
2022-12-24T01:01:58.551Z,99865.22
2022-12-24T01:05:10.557Z,99872.81
2022-12-24T01:08:13.219Z,99865.72
2022-12-24T01:11:16.245Z,99845.19
2022-12-24T01:14:19.126Z,99821.25
2022-12-24T01:17:22.183Z,99822.66
2022-12-24T01:20:31.617Z,99809.81
2022-12-24T01:23:34.725Z,99804.69
2022-12-24T01:26:37.244Z,99792.50
2022-12-24T01:29:40.182Z,99792.25
2022-12-24T01:32:43.024Z,99795.47
2022-12-24T01:35:46.206Z,99793.50
2022-12-24T01:38:49.063Z,99779.75
2022-12-24T01:42:10.869Z,99781.09
2022-12-24T01:45:43.628Z,99786.25
2022-12-24T01:49:01.962Z,99782.84
2022-12-24T01:52:11.713Z,99793.81
2022-12-24T01:55:19.142Z,99781.00
2022-12-24T01:58:24.317Z,99789.59
2022-12-24T02:01:27.348Z,99790.41
2022-12-24T02:05:03.300Z,99794.66
2022-12-24T02:08:07.210Z,99802.31
2022-12-24T02:11:16.741Z,99781.81
2022-12-24T02:14:19.854Z,99791.22
2022-12-24T02:17:39.850Z,99790.22
2022-12-24T02:20:50.764Z,99802.22
2022-12-24T02:24:29.635Z,99801.31
2022-12-24T02:27:42.085Z,99814.03
2022-12-24T02:30:55.133Z,99821.59
2022-12-24T02:34:06.379Z,99844.00
2022-12-24T02:37:17.771Z,99833.91
2022-12-24T02:40:52.255Z,99824.47
2022-12-24T02:43:57.488Z,99821.94
2022-12-24T02:47:01.074Z,99805.25
2022-12-24T02:50:09.053Z,99810.56
2022-12-24T02:53:15.270Z,99796.75
2022-12-24T02:56:30.325Z,99812.81
2022-12-24T02:59:41.954Z,99805.13
2022-12-24T03:02:48.229Z,99811.91
2022-12-24T03:05:56.738Z,99815.78
2022-12-24T03:09:13.396Z,99820.19
2022-12-24T03:12:26.837Z,99827.00
2022-12-24T03:15:31.327Z,99843.78
2022-12-24T03:18:33.935Z,99836.13
2022-12-24T03:21:39.796Z,99826.69
2022-12-24T03:24:42.434Z,99811.41
2022-12-24T03:27:46.601Z,99806.50
2022-12-24T03:30:49.423Z,99803.41
2022-12-24T03:33:53.675Z,99794.16
2022-12-24T03:36:57.427Z,99793.22
2022-12-24T03:40:06.481Z,99802.72
2022-12-24T03:43:09.671Z,99803.66
2022-12-24T03:46:12.571Z,99807.31
2022-12-24T03:49:15.274Z,99820.31
2022-12-24T03:52:18.413Z,99832.56
2022-12-24T03:55:21.067Z,99833.50
2022-12-24T03:58:23.904Z,99837.72
2022-12-24T04:01:27.706Z,99852.28
2022-12-24T04:04:32.405Z,99840.34
2022-12-24T04:07:35.096Z,99823.47
2022-12-24T04:10:40.375Z,99835.44
2022-12-24T04:13:43.654Z,99831.22
2022-12-24T04:16:46.487Z,99835.59
2022-12-24T04:19:49.546Z,99836.47
2022-12-24T04:22:53.304Z,99840.00
2022-12-24T04:25:55.972Z,99842.59
2022-12-24T04:29:00.391Z,99835.59
2022-12-24T04:32:03.202Z,99847.59
2022-12-24T04:35:06.391Z,99848.56
2022-12-24T04:38:10.124Z,99846.00
2022-12-24T04:41:23.993Z,99829.66
2022-12-24T04:44:27.229Z,99827.00
2022-12-24T04:47:30.088Z,99826.88
2022-12-24T04:50:34.677Z,99823.31
2022-12-24T04:53:39.439Z,99830.00
2022-12-24T04:56:42.020Z,99836.88
2022-12-24T04:59:44.971Z,99848.91
2022-12-24T05:02:47.975Z,99850.28
2022-12-24T05:05:54.033Z,99847.00
2022-12-24T05:09:00.388Z,99858.22
2022-12-24T05:12:03.466Z,99854.94
2022-12-24T05:15:06.560Z,99848.87
2022-12-24T05:18:09.421Z,99846.28
2022-12-24T05:21:18.450Z,99850.41
2022-12-24T05:24:39.923Z,99858.09
2022-12-24T05:27:49.012Z,99857.25
2022-12-24T05:30:53.992Z,99865.69
2022-12-24T05:33:57.106Z,99877.50
2022-12-24T05:37:00.043Z,99870.50
2022-12-24T05:40:02.811Z,99867.88
2022-12-24T05:43:06.981Z,99874.56
2022-12-24T05:46:12.283Z,99879.66
2022-12-24T05:49:15.292Z,99877.69
2022-12-24T05:52:18.061Z,99883.72
2022-12-24T05:55:20.890Z,99880.31
2022-12-24T05:58:23.494Z,99870.06
2022-12-24T06:01:27.456Z,99873.69
2022-12-24T06:04:30.443Z,99876.38
2022-12-24T06:07:33.060Z,99873.00
2022-12-24T06:10:42.091Z,99867.75
2022-12-24T06:13:44.938Z,99866.22
2022-12-24T06:16:47.970Z,99862.09
2022-12-24T06:19:50.603Z,99870.75
2022-12-24T06:22:53.885Z,99878.41
2022-12-24T06:25:58.266Z,99879.37
2022-12-24T06:29:01.226Z,99880.22
2022-12-24T06:32:04.048Z,99891.22
2022-12-24T06:35:07.205Z,99899.53
2022-12-24T06:38:09.942Z,99893.59
2022-12-24T06:41:14.595Z,99891.75
2022-12-24T06:44:17.287Z,99892.75
2022-12-24T06:47:20.166Z,99896.13
2022-12-24T06:50:25.181Z,99910.59
2022-12-24T06:53:28.509Z,99920.66
2022-12-24T06:56:31.146Z,99926.63
2022-12-24T06:59:34.085Z,99930.81
2022-12-24T07:02:43.328Z,99934.34
2022-12-24T07:05:46.295Z,99938.34
2022-12-24T07:08:48.936Z,99932.28
2022-12-24T07:11:52.238Z,99940.06
2022-12-24T07:14:54.812Z,99952.84
2022-12-24T07:17:57.700Z,99944.22
2022-12-24T07:21:06.629Z,99941.50
2022-12-24T07:24:09.853Z,99943.09
2022-12-24T07:27:12.952Z,99937.75
2022-12-24T07:30:16.049Z,99944.62
2022-12-24T07:33:19.051Z,99948.78
2022-12-24T07:36:22.438Z,99958.13
2022-12-24T07:39:24.941Z,99962.00
2022-12-24T07:42:27.837Z,99971.44
2022-12-24T07:45:30.741Z,99978.19
2022-12-24T07:48:33.843Z,99968.41
2022-12-24T07:51:37.001Z,99983.72
2022-12-24T07:54:40.215Z,99995.47
2022-12-24T07:57:42.735Z,100005.56
2022-12-24T08:00:46.945Z,100007.88
2022-12-24T08:03:54.592Z,100006.91
2022-12-24T08:06:57.562Z,100011.88
2022-12-24T08:10:00.484Z,100013.31
2022-12-24T08:13:03.144Z,100023.31
2022-12-24T08:16:06.623Z,100018.69
2022-12-24T08:19:09.293Z,100036.81
2022-12-24T08:22:12.198Z,100029.75
2022-12-24T08:25:14.819Z,100047.81
2022-12-24T08:28:20.476Z,100058.88
2022-12-24T08:31:25.488Z,100058.63
2022-12-24T08:34:28.614Z,100063.47
2022-12-24T08:37:31.201Z,100068.53
2022-12-24T08:40:35.235Z,100077.66
2022-12-24T08:43:38.025Z,100087.00
2022-12-24T08:46:41.092Z,100093.72
2022-12-24T08:49:43.758Z,100099.41
2022-12-24T08:52:46.637Z,100100.09
2022-12-24T08:55:55.690Z,100100.88
2022-12-24T08:58:58.959Z,100116.88
2022-12-24T09:02:02.763Z,100115.19
2022-12-24T09:05:06.096Z,100112.34
2022-12-24T09:08:08.784Z,100110.03
2022-12-24T09:11:15.101Z,100108.88
2022-12-24T09:14:17.971Z,100114.53
2022-12-24T09:17:21.654Z,100118.69
2022-12-24T09:20:24.441Z,100125.22
2022-12-24T09:23:27.642Z,100135.25
2022-12-24T09:26:31.526Z,100134.00
2022-12-24T09:29:34.469Z,100139.41
2022-12-24T09:32:37.160Z,100137.16
2022-12-24T09:35:40.258Z,100139.91
2022-12-24T09:38:43.312Z,100141.94
2022-12-24T09:41:55.424Z,100131.97
2022-12-24T09:45:04.229Z,100131.94
2022-12-24T09:48:18.336Z,100129.25
2022-12-24T09:51:39.815Z,100133.91
2022-12-24T09:54:50.881Z,100135.69
2022-12-24T09:57:55.522Z,100136.94
2022-12-24T10:00:58.534Z,100133.41
2022-12-24T10:04:13.547Z,100140.22
2022-12-24T10:07:32.446Z,100144.09
2022-12-24T10:10:52.909Z,100148.28
2022-12-24T10:14:27.738Z,100143.66
2022-12-24T10:17:57.762Z,100148.34
2022-12-24T10:21:14.763Z,100147.66
2022-12-24T10:24:46.390Z,100149.28
2022-12-24T10:27:55.706Z,100154.28
2022-12-24T10:31:03.473Z,100157.56
2022-12-24T10:34:16.528Z,100160.72
2022-12-24T10:37:25.484Z,100164.31
2022-12-24T10:40:40.130Z,100169.31
2022-12-24T10:43:45.949Z,100161.28
2022-12-24T10:46:48.619Z,100166.00
2022-12-24T10:50:05.293Z,100163.22
2022-12-24T10:53:18.957Z,100171.78
2022-12-24T10:56:21.854Z,100163.06
2022-12-24T10:59:31.004Z,100168.88
2022-12-24T11:02:36.677Z,100169.78
2022-12-24T11:05:40.862Z,100163.50
2022-12-24T11:08:45.048Z,100180.50
2022-12-24T11:11:47.823Z,100170.25
2022-12-24T11:15:01.852Z,100185.84
2022-12-24T11:18:14.732Z,100173.47
2022-12-24T11:21:23.407Z,100180.19
2022-12-24T11:24:37.834Z,100183.03
2022-12-24T11:27:46.000Z,100205.50
2022-12-24T11:31:05.560Z,100201.44
2022-12-24T11:34:33.640Z,100212.63
2022-12-24T11:37:36.271Z,100218.03
2022-12-24T11:40:46.117Z,100214.22
2022-12-24T11:43:51.418Z,100225.47
2022-12-24T11:46:58.839Z,100213.59
2022-12-24T11:50:23.298Z,100201.31
2022-12-24T11:53:36.302Z,100206.34
2022-12-24T11:56:46.568Z,100223.00
2022-12-24T11:59:51.700Z,100218.06
2022-12-24T12:02:57.320Z,100203.16
2022-12-24T12:06:03.555Z,100209.03
2022-12-24T12:09:11.956Z,100213.25
2022-12-24T12:12:29.562Z,100219.75
2022-12-24T12:15:40.156Z,100215.53
2022-12-24T12:18:49.465Z,100214.44
2022-12-24T12:21:52.457Z,100211.56
2022-12-24T12:24:58.358Z,100218.66
2022-12-24T12:28:03.445Z,100223.06
2022-12-24T12:31:16.672Z,100238.50
2022-12-24T12:34:37.003Z,100235.91
2022-12-24T12:37:44.372Z,100238.19
2022-12-24T12:41:28.815Z,100247.16
2022-12-24T12:44:59.916Z,100240.84
2022-12-24T12:48:27.383Z,100241.78
2022-12-24T12:52:13.225Z,100275.00
2022-12-24T12:55:38.758Z,100274.31
2022-12-24T12:58:53.829Z,100274.81
2022-12-24T13:02:23.859Z,100279.50
2022-12-24T13:05:51.047Z,100278.00
2022-12-24T13:09:18.577Z,100279.09
2022-12-24T13:12:31.087Z,100277.63
2022-12-24T13:16:08.693Z,100281.91
2022-12-24T13:19:24.452Z,100284.53
2022-12-24T13:22:27.267Z,100291.31
2022-12-24T13:25:38.251Z,100289.25
2022-12-24T13:28:42.565Z,100297.44
2022-12-24T13:31:45.705Z,100295.81
2022-12-24T13:35:20.707Z,100301.09
2022-12-24T13:38:32.322Z,100294.06
2022-12-24T13:41:40.559Z,100310.25
2022-12-24T13:44:43.723Z,100320.44
2022-12-24T13:47:46.355Z,100315.50
2022-12-24T13:50:52.702Z,100326.91
2022-12-24T13:53:59.919Z,100322.91
2022-12-24T13:57:22.964Z,100319.06
2022-12-24T14:00:31.435Z,100318.41
2022-12-24T14:03:42.416Z,100326.78
2022-12-24T14:06:51.884Z,100328.84
2022-12-24T14:09:54.791Z,100330.50
2022-12-24T14:12:57.816Z,100332.16
2022-12-24T14:16:03.193Z,100341.75
2022-12-24T14:19:37.091Z,100347.47
2022-12-24T14:22:45.366Z,100347.84
2022-12-24T14:25:48.996Z,100351.53
2022-12-24T14:29:08.325Z,100362.00
2022-12-24T14:32:16.590Z,100364.09
2022-12-24T14:35:21.004Z,100368.25
2022-12-24T14:38:25.264Z,100372.09
2022-12-24T14:42:19.230Z,100374.69
2022-12-24T14:45:34.907Z,100382.53
2022-12-24T14:48:47.799Z,100394.31
2022-12-24T14:52:02.895Z,100404.50
2022-12-24T14:55:51.034Z,100402.81
2022-12-24T14:58:53.682Z,100406.03
2022-12-24T15:01:56.817Z,100411.28
2022-12-24T15:05:07.050Z,100414.09
2022-12-24T15:08:20.117Z,100415.25
2022-12-24T15:11:24.372Z,100409.75
2022-12-24T15:14:30.326Z,100433.28
2022-12-24T15:17:34.726Z,100430.00
2022-12-24T15:20:37.782Z,100424.38
2022-12-24T15:23:50.346Z,100424.97
2022-12-24T15:26:53.768Z,100434.44
2022-12-24T15:29:58.072Z,100432.38
2022-12-24T15:33:01.298Z,100441.28
2022-12-24T15:36:05.741Z,100442.34
2022-12-24T15:39:16.834Z,100449.22
2022-12-24T15:42:22.688Z,100448.59
2022-12-24T15:45:31.039Z,100454.69
2022-12-24T15:48:36.106Z,100466.12
2022-12-24T15:51:40.485Z,100468.06
2022-12-24T15:54:45.915Z,100471.91
2022-12-24T15:57:49.598Z,100460.75
2022-12-24T16:01:02.787Z,100475.47
2022-12-24T16:04:15.955Z,100473.00
2022-12-24T16:07:47.482Z,100471.59
2022-12-24T16:11:05.777Z,100481.19
2022-12-24T16:14:17.066Z,100481.72
2022-12-24T16:17:26.362Z,100481.97
2022-12-24T16:20:29.424Z,100478.94
2022-12-24T16:23:46.227Z,100486.84
2022-12-24T16:26:48.892Z,100492.41
2022-12-24T16:29:51.996Z,100488.16
2022-12-24T16:32:54.850Z,100478.59
2022-12-24T16:35:57.835Z,100483.16
2022-12-24T16:39:19.231Z,100486.06
2022-12-24T16:42:40.787Z,100491.16
2022-12-24T16:45:45.356Z,100496.81
2022-12-24T16:48:49.089Z,100492.09
2022-12-24T16:51:51.783Z,100497.28
2022-12-24T16:54:56.096Z,100501.50
2022-12-24T16:57:58.716Z,100496.09
2022-12-24T17:01:07.139Z,100499.84
2022-12-24T17:04:11.247Z,100511.53
2022-12-24T17:07:16.356Z,100517.41
2022-12-24T17:10:19.009Z,100523.50
2022-12-24T17:13:22.015Z,100527.25
2022-12-24T17:16:24.979Z,100537.81
2022-12-24T17:19:28.101Z,100542.41
2022-12-24T17:22:30.895Z,100540.44
2022-12-24T17:25:36.002Z,100536.59
2022-12-24T17:28:39.401Z,100548.97
2022-12-24T17:31:43.059Z,100551.00
2022-12-24T17:34:46.036Z,100552.28
2022-12-24T17:37:48.951Z,100557.47
2022-12-24T17:40:51.635Z,100557.84
2022-12-24T17:43:54.559Z,100571.81
2022-12-24T17:46:57.237Z,100567.88
2022-12-24T17:50:00.391Z,100574.00
2022-12-24T17:53:03.068Z,100571.63
2022-12-24T17:56:07.326Z,100563.38
2022-12-24T17:59:10.241Z,100572.87
2022-12-24T18:02:13.200Z,100576.16
2022-12-24T18:05:16.233Z,100586.41
2022-12-24T18:08:20.012Z,100586.47
2022-12-24T18:11:29.294Z,100585.22
2022-12-24T18:14:31.926Z,100598.19
2022-12-24T18:17:34.835Z,100606.75
2022-12-24T18:20:42.725Z,100610.97
2022-12-24T18:23:50.616Z,100606.87
2022-12-24T18:26:53.199Z,100601.88
2022-12-24T18:29:56.174Z,100607.91
2022-12-24T18:33:00.830Z,100608.06
2022-12-24T18:36:04.093Z,100617.59
2022-12-24T18:39:06.728Z,100614.31
2022-12-24T18:42:14.483Z,100618.53
2022-12-24T18:45:17.311Z,100611.72
2022-12-24T18:48:20.232Z,100625.53
2022-12-24T18:51:26.553Z,100634.09
2022-12-24T18:54:29.516Z,100633.37
2022-12-24T18:57:32.232Z,100640.25
2022-12-24T19:00:35.399Z,100643.34
2022-12-24T19:03:38.573Z,100653.53
2022-12-24T19:06:45.916Z,100654.94
2022-12-24T19:09:53.604Z,100651.97
2022-12-24T19:12:57.089Z,100652.06
2022-12-24T19:16:00.146Z,100650.34
2022-12-24T19:19:05.052Z,100650.97
2022-12-24T19:22:07.803Z,100655.53
2022-12-24T19:25:10.745Z,100673.78
2022-12-24T19:28:13.617Z,100667.78
2022-12-24T19:31:22.119Z,100671.25
2022-12-24T19:34:24.904Z,100664.69
2022-12-24T19:37:27.764Z,100676.19
2022-12-24T19:40:30.468Z,100674.50
2022-12-24T19:43:33.389Z,100696.59
2022-12-24T19:46:36.922Z,100698.59
2022-12-24T19:49:39.922Z,100699.75
2022-12-24T19:52:43.871Z,100692.97
2022-12-24T19:55:46.885Z,100696.50
2022-12-24T19:58:49.571Z,100699.84
2022-12-24T20:01:54.344Z,100694.13
2022-12-24T20:04:57.485Z,100693.34
2022-12-24T20:08:00.183Z,100703.69
2022-12-24T20:11:11.173Z,100688.81
2022-12-24T20:14:13.803Z,100693.16
2022-12-24T20:17:16.612Z,100699.41
2022-12-24T20:20:19.278Z,100706.03
2022-12-24T20:23:22.096Z,100712.88
2022-12-24T20:26:28.490Z,100715.75
2022-12-24T20:29:31.728Z,100717.59
2022-12-24T20:32:34.314Z,100708.81
2022-12-24T20:35:37.427Z,100710.63
2022-12-24T20:38:40.219Z,100712.94
2022-12-24T20:41:43.268Z,100718.06
2022-12-24T20:44:48.362Z,100715.41
2022-12-24T20:47:51.270Z,100711.66
2022-12-24T20:50:54.018Z,100720.19
2022-12-24T20:54:00.266Z,100721.84
2022-12-24T20:57:02.949Z,100725.28
2022-12-24T21:00:06.578Z,100727.41
2022-12-24T21:03:09.176Z,100729.09
2022-12-24T21:06:12.874Z,100726.53
2022-12-24T21:09:15.584Z,100730.75
2022-12-24T21:12:37.076Z,100732.78
2022-12-24T21:15:41.201Z,100745.31
2022-12-24T21:18:44.287Z,100742.72
2022-12-24T21:21:47.953Z,100735.31
2022-12-24T21:24:50.823Z,100740.50
2022-12-24T21:27:57.263Z,100753.22
2022-12-24T21:31:00.313Z,100757.66
2022-12-24T21:34:04.511Z,100756.41
2022-12-24T21:37:07.332Z,100760.56
2022-12-24T21:40:10.961Z,100775.69
2022-12-24T21:43:13.857Z,100783.66
2022-12-24T21:46:19.458Z,100778.25
2022-12-24T21:49:41.353Z,100776.88
2022-12-24T21:52:46.468Z,100770.25
2022-12-24T21:55:49.450Z,100777.16
2022-12-24T21:58:52.227Z,100779.19
2022-12-24T22:01:55.994Z,100787.09
2022-12-24T22:04:58.927Z,100783.81
2022-12-24T22:08:20.837Z,100776.28
2022-12-24T22:11:42.376Z,100781.44
2022-12-24T22:14:45.054Z,100793.53
2022-12-24T22:17:48.008Z,100797.16
2022-12-24T22:20:51.119Z,100797.38
2022-12-24T22:23:53.987Z,100799.91
2022-12-24T22:26:57.437Z,100804.88
2022-12-24T22:30:00.272Z,100800.75
2022-12-24T22:33:02.848Z,100794.19
2022-12-24T22:36:06.126Z,100794.31
2022-12-24T22:39:08.788Z,100801.19
2022-12-24T22:42:11.797Z,100805.38
2022-12-24T22:45:20.013Z,100800.34
2022-12-24T22:48:25.217Z,100805.69
2022-12-24T22:51:27.862Z,100804.91
2022-12-24T22:54:30.789Z,100803.13
2022-12-24T22:57:33.469Z,100803.03
2022-12-24T23:00:36.862Z,100806.47
2022-12-24T23:03:39.511Z,100806.47
2022-12-24T23:06:43.536Z,100794.50
2022-12-24T23:09:46.095Z,100810.84
2022-12-24T23:13:12.764Z,100808.34
2022-12-24T23:16:17.440Z,100815.25
2022-12-24T23:19:20.621Z,100818.69
2022-12-24T23:22:23.177Z,100816.06
2022-12-24T23:25:26.221Z,100822.06
2022-12-24T23:28:28.933Z,100813.31
2022-12-24T23:31:34.668Z,100810.69
2022-12-24T23:34:37.330Z,100817.56
2022-12-24T23:37:40.217Z,100822.63
2022-12-24T23:40:42.956Z,100811.28
2022-12-24T23:43:46.633Z,100810.09
2022-12-24T23:46:49.219Z,100795.78
2022-12-24T23:49:52.140Z,100811.50
2022-12-24T23:52:54.665Z,100822.59
2022-12-24T23:55:57.451Z,100826.44
2022-12-24T23:59:02.570Z,100821.59
